Time;durP1;ratioP1;P1;durP2;ratioP2;P2;SDS_P1;SDS_P2;PMS_P1;PMS_P2;Temp;Humidity;BMP_temperature;BMP_pressure;BME280_temperature;BME280_humidity;BME280_pressure;Samples;Min_cycle;Max_cycle;Signal;HPM_P1;HPM_P2
2023/01/06 00:02:12;;;;;;;1999.90;999.90;;;9.60;99.90;;;;;;5094548;28;20406;-77
2023/01/06 00:04:38;;;;;;;1999.90;999.90;;;9.60;99.90;;;;;;5095713;28;20587;-77
2023/01/06 00:07:03;;;;;;;1999.90;999.90;;;9.60;99.90;;;;;;5094004;28;20031;-77
2023/01/06 00:09:29;;;;;;;1999.90;999.90;;;9.70;99.90;;;;;;5096049;28;20071;-77
2023/01/06 00:11:54;;;;;;;1999.90;999.90;;;9.70;99.90;;;;;;5095970;28;20136;-77
2023/01/06 00:14:20;;;;;;;1999.90;999.90;;;9.80;99.90;;;;;;5095776;28;20396;-77
2023/01/06 00:16:45;;;;;;;1999.90;999.90;;;9.80;99.90;;;;;;5093822;28;20031;-77
2023/01/06 00:19:12;;;;;;;1999.90;999.90;;;9.90;99.90;;;;;;5093814;28;20040;-76
2023/01/06 00:21:37;;;;;;;1999.90;999.90;;;9.90;99.90;;;;;;5095540;28;20041;-77
2023/01/06 00:24:03;;;;;;;1999.90;999.90;;;10.00;99.90;;;;;;5095618;28;20521;-76
2023/01/06 00:26:28;;;;;;;1999.90;999.90;;;10.10;99.90;;;;;;5094933;28;20040;-76
2023/01/06 00:28:55;;;;;;;1999.90;999.90;;;10.10;99.90;;;;;;5095831;28;20036;-76
2023/01/06 00:31:21;;;;;;;1999.90;999.90;;;10.10;99.90;;;;;;5108581;28;20121;-76
2023/01/06 00:33:47;;;;;;;1999.90;999.90;;;10.00;99.90;;;;;;5115921;27;20040;-76
2023/01/06 00:36:13;;;;;;;1999.90;999.90;;;9.90;99.90;;;;;;5115483;27;20036;-76
2023/01/06 00:38:39;;;;;;;1999.90;999.90;;;9.80;99.90;;;;;;5114966;27;20047;-76
2023/01/06 00:42:02;;;;;;;1999.90;999.90;;;9.60;99.90;;;;;;5115566;27;20047;-77
2023/01/06 00:43:53;;;;;;;1999.90;999.90;;;9.60;99.90;;;;;;5115328;27;20493;-77
2023/01/06 00:46:19;;;;;;;1999.90;999.90;;;9.70;99.90;;;;;;5114299;28;20032;-77
2023/01/06 00:48:44;;;;;;;1999.90;999.90;;;9.80;99.90;;;;;;5113550;27;20552;-76
2023/01/06 00:51:10;;;;;;;1999.90;999.90;;;9.80;99.90;;;;;;5115335;27;20044;-76
2023/01/06 00:53:35;;;;;;;1999.90;999.90;;;9.90;99.90;;;;;;5114320;27;20516;-76
2023/01/06 00:56:01;;;;;;;1999.90;999.90;;;9.90;99.90;;;;;;5113692;28;26644;-77
2023/01/06 00:58:33;;;;;;;1999.90;999.90;;;10.00;99.90;;;;;;5101517;27;20060;-76
2023/01/06 01:01:07;;;;;;;1999.90;999.90;;;10.00;99.90;;;;;;5094971;28;20037;-76
2023/01/06 01:03:34;;;;;;;1999.90;999.90;;;10.10;99.90;;;;;;5093896;28;20033;-76
2023/01/06 01:06:01;;;;;;;1999.90;999.90;;;10.10;99.90;;;;;;5093380;28;20116;-76
2023/01/06 01:08:27;;;;;;;1999.90;999.90;;;10.10;99.90;;;;;;5093325;28;20039;-76
2023/01/06 01:10:53;;;;;;;1999.90;999.90;;;10.10;99.90;;;;;;5103866;28;20432;-77
2023/01/06 01:13:18;;;;;;;1999.90;999.90;;;10.20;99.90;;;;;;5115263;27;20541;-77
2023/01/06 01:15:44;;;;;;;1999.90;999.90;;;10.20;99.90;;;;;;5115214;27;20054;-76
2023/01/06 01:18:09;;;;;;;1999.90;999.90;;;10.30;99.90;;;;;;5112388;28;20044;-77
2023/01/06 01:20:36;;;;;;;1999.90;999.90;;;10.40;99.90;;;;;;5110171;27;20498;-77
2023/01/06 01:23:01;;;;;;;1999.90;999.90;;;10.40;99.90;;;;;;5094782;28;20048;-77
2023/01/06 01:25:27;;;;;;;1999.90;999.90;;;10.40;99.90;;;;;;5094793;28;20479;-76
2023/01/06 01:27:52;;;;;;;1999.90;999.90;;;10.50;99.90;;;;;;5094277;28;20044;-76
2023/01/06 01:30:19;;;;;;;1999.90;999.90;;;10.50;99.90;;;;;;5092933;28;20559;-76
2023/01/06 01:32:45;;;;;;;1999.90;999.90;;;10.50;99.90;;;;;;5094694;28;20033;-76
2023/01/06 01:35:11;;;;;;;1999.90;999.90;;;10.50;99.90;;;;;;5094752;28;20102;-76
2023/01/06 01:37:36;;;;;;;1999.90;999.90;;;10.50;99.90;;;;;;5092711;28;20371;-76
2023/01/06 01:40:02;;;;;;;1999.90;999.90;;;10.60;99.90;;;;;;5094380;28;21545;-76
2023/01/06 01:42:28;;;;;;;1999.90;999.90;;;10.60;99.90;;;;;;5094731;28;20397;-76
2023/01/06 01:45:00;;;;;;;1999.90;999.90;;;10.50;99.90;;;;;;5093211;28;20041;-76
2023/01/06 01:47:32;;;;;;;1999.90;999.90;;;10.50;99.90;;;;;;5094474;28;20037;-76
2023/01/06 01:50:06;;;;;;;1999.90;999.90;;;10.50;99.90;;;;;;5094501;28;20059;-76
2023/01/06 01:52:33;;;;;;;1999.90;999.90;;;10.60;99.90;;;;;;5094789;28;20025;-76
2023/01/06 01:54:59;;;;;;;1999.90;999.90;;;10.70;99.90;;;;;;5094443;28;20546;-76
2023/01/06 01:57:33;;;;;;;1999.90;999.90;;;10.80;99.90;;;;;;5094111;28;20033;-77
2023/01/06 02:00:00;;;;;;;1999.90;999.90;;;10.80;99.90;;;;;;5092980;28;20083;-76
2023/01/06 02:02:30;;;;;;;1999.90;999.90;;;10.90;99.90;;;;;;5097758;28;20028;-76
2023/01/06 02:04:56;;;;;;;1999.90;999.90;;;10.90;99.90;;;;;;5097779;28;20040;-76
2023/01/06 02:07:24;;;;;;;1999.90;999.90;;;10.90;99.90;;;;;;5097488;28;20031;-76
2023/01/06 02:09:58;;;;;;;1999.90;999.90;;;10.90;99.90;;;;;;5097797;28;20554;-76
2023/01/06 02:12:23;;;;;;;1999.90;999.90;;;10.90;99.90;;;;;;5097597;28;20032;-76
2023/01/06 02:14:49;;;;;;;1999.90;999.90;;;11.00;99.90;;;;;;5095978;28;20047;-77
2023/01/06 02:17:51;;;;;;;1999.90;999.90;;;11.10;99.90;;;;;;5097274;28;20432;-76
2023/01/06 02:20:22;;;;;;;1999.90;999.90;;;11.10;99.90;;;;;;5095997;28;20040;-76
2023/01/06 02:23:00;;;;;;;1999.90;999.90;;;11.20;99.90;;;;;;5098135;28;20571;-76
2023/01/06 02:26:13;;;;;;;1999.90;999.90;;;11.20;99.90;;;;;;5097481;28;20039;-76
2023/01/06 02:29:00;;;;;;;1999.90;999.90;;;11.30;99.90;;;;;;5077485;28;20049;-76
2023/01/06 02:31:57;;;;;;;1999.90;999.90;;;11.30;99.90;;;;;;5097673;28;20154;-76
2023/01/06 02:34:38;;;;;;;1999.90;999.90;;;11.30;99.90;;;;;;5097951;28;20127;-76
2023/01/06 02:37:43;;;;;;;1999.90;999.90;;;11.40;99.90;;;;;;5098666;28;20056;-76
2023/01/06 02:40:20;;;;;;;1999.90;999.90;;;11.50;99.90;;;;;;5117583;27;20040;-76
2023/01/06 02:42:56;;;;;;;1999.90;999.90;;;11.50;99.90;;;;;;5116871;27;20039;-76
2023/01/06 02:45:30;;;;;;;1999.90;999.90;;;11.50;99.90;;;;;;5117691;27;20031;-76
2023/01/06 02:48:21;;;;;;;1999.90;999.90;;;11.50;99.90;;;;;;5115495;27;20521;-76
2023/01/06 02:51:09;;;;;;;1999.90;999.90;;;11.50;99.90;;;;;;5117210;27;20420;-76
2023/01/06 02:53:44;;;;;;;1999.90;999.90;;;11.50;99.90;;;;;;5117779;27;20032;-76
2023/01/06 02:56:10;;;;;;;1999.90;999.90;;;11.60;99.90;;;;;;5117408;27;20363;-76
2023/01/06 02:58:52;;;;;;;1999.90;999.90;;;11.60;99.90;;;;;;5116949;27;20036;-76
2023/01/06 03:01:24;;;;;;;1999.90;999.90;;;11.60;99.90;;;;;;5118030;27;20490;-76
2023/01/06 03:03:52;;;;;;;1999.90;999.90;;;11.50;99.90;;;;;;5117050;27;20040;-76
2023/01/06 03:06:24;;;;;;;1999.90;999.90;;;11.50;99.90;;;;;;5116996;27;20036;-76
2023/01/06 03:08:52;;;;;;;1999.90;999.90;;;11.50;99.90;;;;;;5116852;27;20038;-76
2023/01/06 03:11:17;;;;;;;1999.90;999.90;;;11.60;99.90;;;;;;5116760;27;20038;-76
2023/01/06 03:13:58;;;;;;;1999.90;999.90;;;11.60;99.90;;;;;;5117263;27;20042;-76
2023/01/06 03:16:24;;;;;;;1999.90;999.90;;;11.60;99.90;;;;;;5122728;28;20028;-76
2023/01/06 03:18:50;;;;;;;1999.90;999.90;;;11.60;99.90;;;;;;5138918;22;20470;-82
2023/01/06 03:21:21;;;;;;;1999.90;999.90;;;11.60;99.90;;;;;;5053158;28;20077;-82
2023/01/06 03:23:46;;;;;;;1999.90;999.90;;;11.60;99.90;;;;;;5066411;28;20037;-82
2023/01/06 03:26:12;;;;;;;1999.90;999.90;;;11.60;99.90;;;;;;5055545;28;20546;-82
2023/01/06 03:28:38;;;;;;;1999.90;999.90;;;11.70;99.90;;;;;;5056679;28;20030;-82
2023/01/06 03:31:27;;;;;;;1999.90;999.90;;;11.70;99.90;;;;;;5054851;28;20072;-82
2023/01/06 03:34:00;;;;;;;1999.90;999.90;;;11.60;99.90;;;;;;5054018;28;20037;-82
2023/01/06 03:36:57;;;;;;;1999.90;999.90;;;11.50;99.90;;;;;;5055994;28;20395;-82
2023/01/06 03:39:47;;;;;;;1999.90;999.90;;;11.60;99.90;;;;;;5054780;28;20048;-82
2023/01/06 03:45:49;;;;;;;1999.90;999.90;;;11.70;99.90;;;;;;5066600;28;20414;-82
2023/01/06 03:48:30;;;;;;;1999.90;999.90;;;11.60;99.90;;;;;;5065753;28;20033;-81
2023/01/06 03:51:15;;;;;;;1999.90;999.90;;;11.40;99.90;;;;;;5068280;28;20052;-81
2023/01/06 03:53:53;;;;;;;1999.90;999.90;;;11.30;99.90;;;;;;5066994;28;20037;-81
2023/01/06 03:56:28;;;;;;;1999.90;999.90;;;11.20;99.90;;;;;;5055159;28;20046;-82
2023/01/06 03:59:01;;;;;;;1999.90;999.90;;;11.10;99.90;;;;;;5045285;28;20042;-82
2023/01/06 04:01:28;;;;;;;1999.90;999.90;;;11.00;99.90;;;;;;5046023;28;20041;-82
2023/01/06 04:03:54;;;;;;;1999.90;999.90;;;11.00;99.90;;;;;;5046018;28;20049;-82
2023/01/06 04:06:21;;;;;;;1999.90;999.90;;;11.00;99.90;;;;;;5045668;28;20038;-81
2023/01/06 04:08:47;;;;;;;1999.90;999.90;;;11.00;99.90;;;;;;5046869;28;20098;-81
2023/01/06 04:12:37;;;;;;;1999.90;999.90;;;11.00;99.90;;;;;;5046776;28;20041;-81
2023/01/06 04:13:58;;;;;;;1999.90;999.90;;;11.00;99.90;;;;;;5048975;28;20044;-82
2023/01/06 04:16:24;;;;;;;1999.90;999.90;;;11.00;99.90;;;;;;5049264;28;20482;-82
2023/01/06 04:18:50;;;;;;;1999.90;999.90;;;11.00;99.90;;;;;;5047607;28;20037;-82
2023/01/06 04:21:15;;;;;;;1999.90;999.90;;;10.90;99.90;;;;;;5065649;28;20041;-82
2023/01/06 04:23:41;;;;;;;1999.90;999.90;;;10.80;99.90;;;;;;5062204;28;20033;-82
2023/01/06 04:26:06;;;;;;;1999.90;999.90;;;10.80;99.90;;;;;;5068169;28;20487;-82
2023/01/06 04:28:32;;;;;;;1999.90;999.90;;;10.90;99.90;;;;;;5071657;28;20495;-82
2023/01/06 04:30:59;;;;;;;1999.90;999.90;;;10.80;99.90;;;;;;5053579;28;20059;-82
2023/01/06 04:33:25;;;;;;;1999.90;999.90;;;10.80;99.90;;;;;;5051968;28;20048;-82
2023/01/06 04:35:51;;;;;;;1999.90;999.90;;;10.80;99.90;;;;;;5050664;28;20044;-82
2023/01/06 04:38:16;;;;;;;1999.90;999.90;;;10.80;99.90;;;;;;5051728;28;20062;-82
2023/01/06 04:40:42;;;;;;;1999.90;999.90;;;10.80;99.90;;;;;;5051218;28;20049;-81
2023/01/06 04:43:13;;;;;;;1999.90;999.90;;;11.00;99.90;;;;;;5051824;28;20087;-82
2023/01/06 04:45:39;;;;;;;1999.90;999.90;;;10.90;99.90;;;;;;5051597;28;20034;-82
2023/01/06 04:48:06;;;;;;;1999.90;999.90;;;10.90;99.90;;;;;;5052826;28;20038;-81
2023/01/06 04:50:31;;;;;;;1999.90;999.90;;;10.90;99.90;;;;;;5053315;28;20034;-82
2023/01/06 04:52:57;;;;;;;1999.90;999.90;;;10.90;99.90;;;;;;5052671;28;20045;-82
2023/01/06 04:55:23;;;;;;;1999.90;999.90;;;10.90;99.90;;;;;;5053315;28;20034;-81
2023/01/06 04:57:49;;;;;;;1999.90;999.90;;;10.80;99.90;;;;;;5053722;28;20042;-81
2023/01/06 05:00:15;;;;;;;1999.90;999.90;;;10.80;99.90;;;;;;5059419;28;20073;-82
2023/01/06 05:02:41;;;;;;;1999.90;999.90;;;10.80;99.90;;;;;;5059480;28;20102;-83
2023/01/06 05:05:06;;;;;;;1999.90;999.90;;;10.90;99.90;;;;;;5060259;28;20089;-83
2023/01/06 05:07:32;;;;;;;1999.90;999.90;;;10.90;99.90;;;;;;5046986;28;20389;-82
2023/01/06 05:09:58;;;;;;;1999.90;999.90;;;10.90;99.90;;;;;;5037712;28;20037;-82
2023/01/06 05:12:23;;;;;;;1999.90;999.90;;;10.90;99.90;;;;;;5040510;28;20033;-82
2023/01/06 05:14:49;;;;;;;1999.90;999.90;;;10.90;99.90;;;;;;5040433;28;20038;-82
2023/01/06 05:17:14;;;;;;;1999.90;999.90;;;10.90;99.90;;;;;;5037774;28;20029;-82
2023/01/06 05:19:41;;;;;;;1999.90;999.90;;;10.90;99.90;;;;;;5037621;28;20071;-81
2023/01/06 05:22:07;;;;;;;1999.90;999.90;;;10.90;99.90;;;;;;5039692;28;20030;-82
2023/01/06 05:24:33;;;;;;;1999.90;999.90;;;10.90;99.90;;;;;;5040614;28;20034;-82
2023/01/06 05:26:58;;;;;;;1999.90;999.90;;;10.90;99.90;;;;;;5040808;28;20026;-82
2023/01/06 05:29:24;;;;;;;1999.90;999.90;;;10.90;99.90;;;;;;5048192;28;20045;-82
2023/01/06 05:31:49;;;;;;;1999.90;999.90;;;10.90;99.90;;;;;;5057840;28;20041;-82
2023/01/06 05:34:15;;;;;;;1999.90;999.90;;;10.80;99.90;;;;;;5053201;28;20048;-82
2023/01/06 05:36:41;;;;;;;1999.90;999.90;;;10.80;99.90;;;;;;5057268;28;21231;-82
2023/01/06 05:39:06;;;;;;;1999.90;999.90;;;10.80;99.90;;;;;;5056816;28;20041;-82
2023/01/06 05:41:32;;;;;;;1999.90;999.90;;;10.80;99.90;;;;;;5057021;28;20030;-82
2023/01/06 05:43:57;;;;;;;1999.90;999.90;;;10.80;99.90;;;;;;5061321;28;20056;-82
2023/01/06 05:46:23;;;;;;;1999.90;999.90;;;10.80;99.90;;;;;;5062881;28;20030;-82
2023/01/06 05:48:48;;;;;;;1999.90;999.90;;;10.80;99.90;;;;;;5059743;28;20033;-81
2023/01/06 05:51:15;;;;;;;1999.90;999.90;;;10.80;99.90;;;;;;5060708;28;20037;-82
2023/01/06 05:53:43;;;;;;;1999.90;999.90;;;10.70;99.90;;;;;;5062623;28;20049;-82
2023/01/06 05:56:11;;;;;;;1999.90;999.90;;;10.70;99.90;;;;;;5047373;28;20496;-82
2023/01/06 05:58:40;;;;;;;1999.90;999.90;;;10.70;99.90;;;;;;5036660;28;20475;-82
2023/01/06 06:01:13;;;;;;;1999.90;999.90;;;10.70;99.90;;;;;;5037454;28;20857;-82
2023/01/06 06:03:38;;;;;;;1999.90;999.90;;;10.70;99.90;;;;;;5037072;28;20026;-82
2023/01/06 06:06:05;;;;;;;1999.90;999.90;;;10.60;99.90;;;;;;5036784;28;20452;-82
2023/01/06 06:08:31;;;;;;;1999.90;999.90;;;10.60;99.90;;;;;;5037814;28;20065;-82
2023/01/06 06:11:05;;;;;;;1999.90;999.90;;;10.60;99.90;;;;;;5037304;28;20086;-83
2023/01/06 06:13:31;;;;;;;1999.90;999.90;;;10.60;99.90;;;;;;5037628;28;20594;-81
2023/01/06 06:16:10;;;;;;;1999.90;999.90;;;10.60;99.90;;;;;;5041288;28;20062;-82
2023/01/06 06:18:41;;;;;;;1999.90;999.90;;;10.60;99.90;;;;;;5042901;28;20038;-82
2023/01/06 06:21:08;;;;;;;1999.90;999.90;;;10.60;99.90;;;;;;5053061;28;20089;-82
2023/01/06 06:23:34;;;;;;;1999.90;999.90;;;10.50;99.90;;;;;;5054615;28;20033;-82
2023/01/06 06:26:00;;;;;;;1999.90;999.90;;;10.50;99.90;;;;;;5059698;28;20049;-82
2023/01/06 06:28:28;;;;;;;1999.90;999.90;;;10.40;99.90;;;;;;5053935;28;20050;-82
2023/01/06 06:30:54;;;;;;;1999.90;999.90;;;10.30;99.90;;;;;;5039998;28;20054;-82
2023/01/06 06:33:19;;;;;;;1999.90;999.90;;;10.30;99.90;;;;;;5037539;28;20074;-82
2023/01/06 06:35:55;;;;;;;1999.90;999.90;;;10.20;99.90;;;;;;5037758;28;20156;-82
2023/01/06 06:38:20;;;;;;;1999.90;999.90;;;10.20;99.90;;;;;;5036261;28;20092;-82
2023/01/06 06:40:46;;;;;;;1999.90;999.90;;;10.10;99.90;;;;;;5036626;28;20097;-82
2023/01/06 06:43:11;;;;;;;1999.90;999.90;;;10.10;99.90;;;;;;5039017;28;20514;-81
2023/01/06 06:45:37;;;;;;;1999.90;999.90;;;10.00;99.90;;;;;;5038729;28;20570;-81
2023/01/06 06:48:03;;;;;;;1999.90;999.90;;;9.90;99.90;;;;;;5036067;28;20041;-82
2023/01/06 06:50:28;;;;;;;1999.90;999.90;;;9.90;99.90;;;;;;5036278;28;20483;-81
2023/01/06 06:52:54;;;;;;;1999.90;999.90;;;9.90;99.90;;;;;;5037638;28;20038;-82
2023/01/06 06:55:20;;;;;;;1999.90;999.90;;;9.80;99.90;;;;;;5036301;28;20037;-82
2023/01/06 06:57:45;;;;;;;1999.90;999.90;;;9.80;99.90;;;;;;5035674;28;20026;-82
2023/01/06 07:00:11;;;;;;;1999.90;999.90;;;9.80;99.90;;;;;;5037315;28;20050;-82
2023/01/06 07:02:37;;;;;;;1999.90;999.90;;;9.80;99.90;;;;;;5039964;28;20211;-81
2023/01/06 07:05:03;;;;;;;1999.90;999.90;;;9.70;99.90;;;;;;5056526;28;20152;-82
2023/01/06 07:07:28;;;;;;;1999.90;999.90;;;9.70;99.90;;;;;;5055361;28;20034;-81
2023/01/06 07:09:54;;;;;;;1999.90;999.90;;;9.70;99.90;;;;;;5056665;28;20364;-82
2023/01/06 07:12:19;;;;;;;1999.90;999.90;;;9.70;99.90;;;;;;5055813;28;20510;-81
2023/01/06 07:14:45;;;;;;;1999.90;999.90;;;9.60;99.90;;;;;;5056993;28;20033;-82
2023/01/06 07:17:10;;;;;;;1999.90;999.90;;;9.70;99.90;;;;;;5059566;28;20037;-81
2023/01/06 07:19:36;;;;;;;1999.90;999.90;;;9.60;99.90;;;;;;5056759;28;20053;-81
2023/01/06 07:22:01;;;;;;;1999.90;999.90;;;9.70;99.90;;;;;;5046273;28;20558;-81
2023/01/06 07:24:27;;;;;;;1999.90;999.90;;;9.70;99.90;;;;;;5039908;28;20109;-81
2023/01/06 07:26:53;;;;;;;1999.90;999.90;;;9.70;99.90;;;;;;5036414;28;20044;-81
2023/01/06 07:29:18;;;;;;;1999.90;999.90;;;9.70;99.90;;;;;;5037023;28;20037;-81
2023/01/06 07:31:44;;;;;;;1999.90;999.90;;;9.70;99.90;;;;;;5048885;28;20488;-81
2023/01/06 07:34:09;;;;;;;1999.90;999.90;;;9.70;99.90;;;;;;5055563;28;20037;-81
2023/01/06 07:36:35;;;;;;;1999.90;999.90;;;9.70;99.90;;;;;;5056276;28;20029;-81
2023/01/06 07:39:00;;;;;;;1999.90;999.90;;;9.70;99.90;;;;;;5055121;28;20475;-82
2023/01/06 07:41:26;;;;;;;1999.90;999.90;;;9.70;99.90;;;;;;5055566;28;20044;-81
2023/01/06 07:43:51;;;;;;;1999.90;999.90;;;9.70;99.90;;;;;;5056835;28;20043;-80
2023/01/06 07:46:17;;;;;;;1999.90;999.90;;;9.70;99.90;;;;;;5055209;28;20032;-82
2023/01/06 07:48:43;;;;;;;1999.90;999.90;;;9.70;99.90;;;;;;5058016;28;20045;-80
2023/01/06 07:51:08;;;;;;;1999.90;999.90;;;9.70;99.90;;;;;;5057346;28;20091;-81
2023/01/06 07:53:34;;;;;;;1999.90;999.90;;;9.80;99.90;;;;;;5056588;28;20036;-81
2023/01/06 07:56:00;;;;;;;1999.90;999.90;;;9.80;99.90;;;;;;5056999;28;20036;-81
2023/01/06 07:58:25;;;;;;;1999.90;999.90;;;9.80;99.90;;;;;;5036396;28;20053;-80
2023/01/06 08:00:51;;;;;;;1999.90;999.90;;;9.80;99.90;;;;;;5036839;28;20084;-82
2023/01/06 08:03:16;;;;;;;1999.90;999.90;;;9.90;99.90;;;;;;5037821;28;20057;-82
2023/01/06 08:05:42;;;;;;;1999.90;999.90;;;9.90;99.90;;;;;;5037521;28;20103;-81
2023/01/06 08:08:11;;;;;;;1999.90;999.90;;;9.90;99.90;;;;;;5037520;28;20766;-81
2023/01/06 08:10:41;;;;;;;1999.90;999.90;;;9.90;99.90;;;;;;5039943;28;20530;-81
2023/01/06 08:13:07;;;;;;;1999.90;999.90;;;9.90;99.90;;;;;;5037718;28;20038;-81
2023/01/06 08:15:33;;;;;;;1999.90;999.90;;;10.00;99.90;;;;;;5037868;28;20041;-80
2023/01/06 08:17:59;;;;;;;1999.90;999.90;;;10.10;99.90;;;;;;5054412;28;20048;-81
2023/01/06 08:20:25;;;;;;;1999.90;999.90;;;10.10;99.90;;;;;;5057361;28;20100;-82
2023/01/06 08:23:09;;;;;;;1999.90;999.90;;;10.10;99.90;;;;;;5057919;28;20045;-81
2023/01/06 08:25:34;;;;;;;1999.90;999.90;;;10.10;99.90;;;;;;5060402;28;20093;-82
2023/01/06 08:28:00;;;;;;;1999.90;999.90;;;10.20;99.90;;;;;;5063585;28;20132;-83
2023/01/06 08:30:26;;;;;;;1999.90;999.90;;;10.30;99.90;;;;;;5042937;28;20456;-81
2023/01/06 08:32:58;;;;;;;1999.90;999.90;;;10.30;99.90;;;;;;5047542;28;20050;-82
2023/01/06 08:35:25;;;;;;;1999.90;999.90;;;10.40;99.90;;;;;;5044435;28;20883;-82
2023/01/06 08:37:51;;;;;;;1999.90;999.90;;;10.50;99.90;;;;;;5045148;28;20046;-81
2023/01/06 08:40:18;;;;;;;1999.90;999.90;;;10.60;99.90;;;;;;5042678;28;20046;-80
2023/01/06 08:42:43;;;;;;;1999.90;999.90;;;10.70;99.90;;;;;;5047159;28;20037;-82
2023/01/06 08:45:09;;;;;;;1999.90;999.90;;;10.70;99.90;;;;;;5065249;28;20041;-81
2023/01/06 08:47:34;;;;;;;1999.90;999.90;;;10.70;99.90;;;;;;5063343;28;20037;-81
2023/01/06 08:50:00;;;;;;;1999.90;999.90;;;10.70;99.90;;;;;;5063071;28;20042;-81
2023/01/06 08:52:26;;;;;;;1999.90;999.90;;;10.70;99.90;;;;;;5067315;28;20042;-81
2023/01/06 08:54:51;;;;;;;1999.90;999.90;;;10.70;99.90;;;;;;5065670;28;20041;-81
2023/01/06 08:57:17;;;;;;;1999.90;999.90;;;10.80;99.90;;;;;;5064535;28;20038;-81
2023/01/06 08:59:42;;;;;;;1999.90;999.90;;;10.80;99.90;;;;;;5068947;28;20104;-81
2023/01/06 09:02:10;;;;;;;1999.90;999.90;;;10.80;99.90;;;;;;5065024;28;20037;-82
2023/01/06 09:04:35;;;;;;;1999.90;999.90;;;10.80;99.90;;;;;;5062895;28;20037;-80
2023/01/06 09:07:04;;;;;;;1999.90;999.90;;;10.70;99.90;;;;;;5061551;28;20060;-81
2023/01/06 09:09:29;;;;;;;1999.90;999.90;;;10.70;99.90;;;;;;5060321;28;20069;-81
2023/01/06 09:11:55;;;;;;;1999.90;999.90;;;10.70;99.90;;;;;;5060116;28;20053;-81
2023/01/06 09:14:22;;;;;;;1999.90;999.90;;;10.70;99.90;;;;;;5063313;28;20035;-81
2023/01/06 09:16:48;;;;;;;1999.90;999.90;;;10.80;99.90;;;;;;5063476;28;20041;-81
2023/01/06 09:19:15;;;;;;;1999.90;999.90;;;10.90;99.90;;;;;;5088407;22;20046;-73
2023/01/06 09:21:42;;;;;;;1999.90;999.90;;;11.00;99.90;;;;;;5013526;28;20071;-76
2023/01/06 09:24:14;;;;;;;1999.90;999.90;;;11.10;99.90;;;;;;5015131;28;20121;-75
2023/01/06 09:26:40;;;;;;;1999.90;999.90;;;11.20;99.90;;;;;;5026929;28;20041;-75
2023/01/06 09:29:05;;;;;;;1999.90;999.90;;;11.40;99.90;;;;;;5033080;28;20514;-74
2023/01/06 09:31:31;;;;;;;1999.90;999.90;;;11.60;99.90;;;;;;5034534;28;20030;-74
2023/01/06 09:33:57;;;;;;;1999.90;999.90;;;11.70;99.90;;;;;;5032296;28;20084;-74
2023/01/06 09:36:22;;;;;;;1999.90;999.90;;;11.70;99.90;;;;;;5020192;28;20034;-74
2023/01/06 09:38:48;;;;;;;1999.90;999.90;;;11.50;99.90;;;;;;5011604;28;20039;-75
2023/01/06 09:41:46;;;;;;;1999.90;999.90;;;11.40;99.90;;;;;;5013332;28;20039;-75
2023/01/06 09:44:39;;;;;;;1999.90;999.90;;;11.40;99.90;;;;;;5009786;28;20045;-75
2023/01/06 09:47:08;;;;;;;1999.90;999.90;;;11.20;99.90;;;;;;5011652;28;20105;-75
2023/01/06 09:49:56;;;;;;;1999.90;999.90;;;11.20;99.90;;;;;;5013978;28;20038;-78
2023/01/06 09:52:30;;;;;;;1999.90;999.90;;;11.20;99.90;;;;;;5012985;28;20031;-77
2023/01/06 09:55:00;;;;;;;1999.90;999.90;;;11.20;99.90;;;;;;5010210;28;20046;-78
2023/01/06 09:57:39;;;;;;;1999.90;999.90;;;11.30;99.90;;;;;;5011421;28;20054;-77
2023/01/06 10:00:24;;;;;;;1999.90;999.90;;;11.20;99.90;;;;;;5012930;28;20177;-77
2023/01/06 10:02:51;;;;;;;1999.90;999.90;;;11.20;99.90;;;;;;5010952;28;20065;-77
2023/01/06 10:05:29;;;;;;;1999.90;999.90;;;11.30;99.90;;;;;;5011411;28;20070;-78
2023/01/06 10:08:05;;;;;;;1999.90;999.90;;;11.50;99.90;;;;;;5010943;28;20034;-77
2023/01/06 10:10:41;;;;;;;1999.90;999.90;;;11.70;99.90;;;;;;5009168;28;21130;-77
2023/01/06 10:13:24;;;;;;;1999.90;999.90;;;11.90;99.90;;;;;;5013202;28;20108;-78
2023/01/06 10:15:57;;;;;;;1999.90;999.90;;;11.90;99.90;;;;;;5011027;28;20113;-77
2023/01/06 10:18:44;;;;;;;1999.90;999.90;;;11.80;99.90;;;;;;5012731;28;20495;-77
2023/01/06 10:21:26;;;;;;;1999.90;999.90;;;11.90;99.90;;;;;;5010764;28;20131;-78
2023/01/06 10:24:00;;;;;;;1999.90;999.90;;;12.10;99.90;;;;;;5013265;28;20030;-77
2023/01/06 10:26:31;;;;;;;1999.90;999.90;;;12.10;99.90;;;;;;5012244;28;20634;-77
2023/01/06 10:29:13;;;;;;;1999.90;999.90;;;12.20;99.90;;;;;;5015991;28;20109;-75
2023/01/06 10:31:42;;;;;;;1999.90;999.90;;;12.30;99.90;;;;;;5014181;28;20038;-75
2023/01/06 10:34:27;;;;;;;1999.90;999.90;;;12.30;99.90;;;;;;5015716;28;20034;-75
2023/01/06 10:37:25;;;;;;;1999.90;999.90;;;12.30;99.90;;;;;;5016539;28;20052;-74
2023/01/06 10:40:17;;;;;;;1999.90;999.90;;;12.20;99.90;;;;;;5014545;28;20042;-75
2023/01/06 10:42:58;;;;;;;1999.90;999.90;;;12.20;99.90;;;;;;5015698;28;20067;-75
2023/01/06 10:45:37;;;;;;;1999.90;999.90;;;12.30;99.90;;;;;;5012829;28;20381;-75
2023/01/06 10:48:06;;;;;;;1999.90;999.90;;;12.30;99.90;;;;;;5011943;28;20038;-75
2023/01/06 10:50:33;;;;;;;1999.90;999.90;;;12.10;99.90;;;;;;5013791;28;20046;-75
2023/01/06 10:52:59;;;;;;;1999.90;999.90;;;12.00;99.90;;;;;;5024784;28;20415;-74
2023/01/06 10:55:24;;;;;;;1999.90;999.90;;;12.10;99.90;;;;;;5017702;28;20860;-74
2023/01/06 10:57:52;;;;;;;1999.90;999.90;;;12.30;99.90;;;;;;5017608;28;20157;-75
2023/01/06 11:00:23;;;;;;;1999.90;999.90;;;12.40;99.90;;;;;;5020121;28;20058;-75
2023/01/06 11:02:52;;;;;;;1999.90;999.90;;;12.40;99.90;;;;;;5016954;28;20480;-74
2023/01/06 11:05:21;;;;;;;1999.90;999.90;;;12.50;99.90;;;;;;5016254;28;20038;-75
2023/01/06 11:08:06;;;;;;;1999.90;999.90;;;12.50;99.90;;;;;;5014893;28;20181;-75
2023/01/06 11:10:49;;;;;;;1999.90;999.90;;;12.50;99.90;;;;;;5014833;28;20078;-75
2023/01/06 11:13:31;;;;;;;1999.90;999.90;;;12.40;99.90;;;;;;5014857;28;20122;-75
2023/01/06 11:16:00;;;;;;;1999.90;999.90;;;12.30;99.90;;;;;;5015812;28;20838;-75
2023/01/06 11:18:31;;;;;;;1999.90;999.90;;;12.30;99.90;;;;;;5015998;28;20038;-75
2023/01/06 11:21:17;;;;;;;1999.90;999.90;;;12.30;99.90;;;;;;5015025;28;20105;-75
2023/01/06 11:23:45;;;;;;;1999.90;999.90;;;12.30;99.90;;;;;;5027113;28;20065;-75
2023/01/06 11:26:11;;;;;;;1999.90;999.90;;;12.30;99.90;;;;;;5025278;28;20040;-75
2023/01/06 11:28:38;;;;;;;1999.90;999.90;;;12.20;99.90;;;;;;5032355;28;20034;-75
2023/01/06 11:31:14;;;;;;;1999.90;999.90;;;12.30;99.90;;;;;;5014658;28;20606;-75
2023/01/06 11:33:51;;;;;;;1999.90;999.90;;;12.40;99.90;;;;;;5013205;28;20090;-75
2023/01/06 11:36:19;;;;;;;1999.90;999.90;;;12.40;99.90;;;;;;5013594;28;20038;-75
2023/01/06 11:38:48;;;;;;;1999.90;999.90;;;12.30;99.90;;;;;;5015414;28;20134;-75
2023/01/06 11:41:39;;;;;;;1999.90;999.90;;;12.30;99.90;;;;;;5015858;28;20049;-75
2023/01/06 11:44:19;;;;;;;1999.90;999.90;;;12.30;99.90;;;;;;5015220;28;20053;-75
2023/01/06 11:46:49;;;;;;;1999.90;999.90;;;12.30;99.90;;;;;;5014037;28;20054;-75
2023/01/06 11:49:24;;;;;;;1999.90;999.90;;;12.30;99.90;;;;;;5016471;28;20038;-75
2023/01/06 11:51:57;;;;;;;1999.90;999.90;;;12.30;99.90;;;;;;5014885;28;20489;-74
2023/01/06 11:54:32;;;;;;;1999.90;999.90;;;12.30;99.90;;;;;;5012239;28;20038;-74
2023/01/06 11:57:11;;;;;;;1999.90;999.90;;;12.20;99.90;;;;;;5014280;28;20525;-75
2023/01/06 11:59:55;;;;;;;1999.90;999.90;;;12.20;99.90;;;;;;5015268;28;20121;-74
2023/01/06 12:02:31;;;;;;;1999.90;999.90;;;12.10;99.90;;;;;;5014899;28;20027;-74
2023/01/06 12:05:00;;;;;;;1999.90;999.90;;;12.00;99.90;;;;;;5014531;28;20117;-74
2023/01/06 12:07:32;;;;;;;1999.90;999.90;;;12.00;99.90;;;;;;5013810;28;20034;-74
2023/01/06 12:10:05;;;;;;;1999.90;999.90;;;12.10;99.90;;;;;;5015230;28;20117;-74
2023/01/06 12:12:30;;;;;;;1999.90;999.90;;;12.00;99.90;;;;;;5015704;28;20034;-76
2023/01/06 12:14:56;;;;;;;1999.90;999.90;;;11.80;99.90;;;;;;5015491;28;20039;-76
2023/01/06 12:17:42;;;;;;;1999.90;999.90;;;11.80;99.90;;;;;;5015291;28;20086;-76
2023/01/06 12:20:18;;;;;;;1999.90;999.90;;;11.80;99.90;;;;;;5018010;28;20495;-74